sensor_id;sensor_type;location;lat;lon;timestamp;P1;durP1;ratioP1;P2;durP2;ratioP2
24159;SDS011;62385;41.594;23.808;2022-07-30T00:00:35;8.77;;;6.75;;
24159;SDS011;62385;41.594;23.808;2022-07-30T00:03:01;7.47;;;6.68;;
24159;SDS011;62385;41.594;23.808;2022-07-30T00:05:26;9.63;;;7.07;;
24159;SDS011;62385;41.594;23.808;2022-07-30T00:07:52;10.75;;;6.70;;
24159;SDS011;62385;41.594;23.808;2022-07-30T00:10:17;6.95;;;6.30;;
24159;SDS011;62385;41.594;23.808;2022-07-30T00:12:44;8.48;;;6.68;;
24159;SDS011;62385;41.594;23.808;2022-07-30T00:15:10;9.55;;;7.18;;
24159;SDS011;62385;41.594;23.808;2022-07-30T00:17:36;7.57;;;6.88;;
24159;SDS011;62385;41.594;23.808;2022-07-30T00:20:01;8.43;;;7.20;;
24159;SDS011;62385;41.594;23.808;2022-07-30T00:22:29;10.05;;;6.35;;
24159;SDS011;62385;41.594;23.808;2022-07-30T00:24:55;8.82;;;7.03;;
24159;SDS011;62385;41.594;23.808;2022-07-30T00:27:20;8.48;;;6.18;;
24159;SDS011;62385;41.594;23.808;2022-07-30T00:29:47;7.95;;;6.90;;
24159;SDS011;62385;41.594;23.808;2022-07-30T00:32:13;8.50;;;6.97;;
24159;SDS011;62385;41.594;23.808;2022-07-30T00:34:39;9.13;;;6.97;;
24159;SDS011;62385;41.594;23.808;2022-07-30T00:37:04;7.63;;;6.55;;
24159;SDS011;62385;41.594;23.808;2022-07-30T00:39:30;8.65;;;7.30;;
24159;SDS011;62385;41.594;23.808;2022-07-30T00:41:57;7.63;;;6.93;;
24159;SDS011;62385;41.594;23.808;2022-07-30T00:44:25;10.02;;;6.75;;
24159;SDS011;62385;41.594;23.808;2022-07-30T00:46:51;7.38;;;6.25;;
24159;SDS011;62385;41.594;23.808;2022-07-30T00:49:17;8.80;;;7.05;;
24159;SDS011;62385;41.594;23.808;2022-07-30T00:51:43;11.20;;;6.70;;
24159;SDS011;62385;41.594;23.808;2022-07-30T00:54:10;9.00;;;6.50;;
24159;SDS011;62385;41.594;23.808;2022-07-30T00:56:36;8.55;;;6.80;;
24159;SDS011;62385;41.594;23.808;2022-07-30T00:59:02;8.13;;;6.60;;
24159;SDS011;62385;41.594;23.808;2022-07-30T01:01:27;7.45;;;6.65;;
24159;SDS011;62385;41.594;23.808;2022-07-30T01:04:14;8.18;;;7.05;;
24159;SDS011;62385;41.594;23.808;2022-07-30T01:06:41;8.73;;;6.80;;
24159;SDS011;62385;41.594;23.808;2022-07-30T01:09:07;8.63;;;7.43;;
24159;SDS011;62385;41.594;23.808;2022-07-30T01:11:35;9.60;;;6.90;;
24159;SDS011;62385;41.594;23.808;2022-07-30T01:14:02;8.80;;;6.72;;
24159;SDS011;62385;41.594;23.808;2022-07-30T01:16:29;8.98;;;7.25;;
24159;SDS011;62385;41.594;23.808;2022-07-30T01:18:55;8.45;;;7.65;;
24159;SDS011;62385;41.594;23.808;2022-07-30T01:21:43;7.57;;;6.88;;
24159;SDS011;62385;41.594;23.808;2022-07-30T01:24:54;8.10;;;6.88;;
24159;SDS011;62385;41.594;23.808;2022-07-30T01:27:07;7.20;;;6.50;;
24159;SDS011;62385;41.594;23.808;2022-07-30T01:29:35;9.68;;;6.90;;
24159;SDS011;62385;41.594;23.808;2022-07-30T01:32:03;7.82;;;7.03;;
24159;SDS011;62385;41.594;23.808;2022-07-30T01:34:32;8.48;;;6.85;;
24159;SDS011;62385;41.594;23.808;2022-07-30T01:36:59;7.32;;;6.53;;
24159;SDS011;62385;41.594;23.808;2022-07-30T01:39:26;7.57;;;6.82;;
24159;SDS011;62385;41.594;23.808;2022-07-30T01:41:55;7.70;;;7.00;;
24159;SDS011;62385;41.594;23.808;2022-07-30T01:44:22;7.38;;;6.68;;
24159;SDS011;62385;41.594;23.808;2022-07-30T01:46:52;7.38;;;6.38;;
24159;SDS011;62385;41.594;23.808;2022-07-30T01:49:21;8.50;;;7.55;;
24159;SDS011;62385;41.594;23.808;2022-07-30T01:51:48;9.25;;;6.68;;
24159;SDS011;62385;41.594;23.808;2022-07-30T01:54:17;7.72;;;6.95;;
24159;SDS011;62385;41.594;23.808;2022-07-30T01:56:45;8.52;;;7.03;;
24159;SDS011;62385;41.594;23.808;2022-07-30T01:59:12;8.18;;;7.20;;
24159;SDS011;62385;41.594;23.808;2022-07-30T02:01:45;8.38;;;7.47;;
24159;SDS011;62385;41.594;23.808;2022-07-30T02:04:11;8.15;;;6.95;;
24159;SDS011;62385;41.594;23.808;2022-07-30T02:06:37;8.57;;;7.05;;
24159;SDS011;62385;41.594;23.808;2022-07-30T02:09:12;8.05;;;6.50;;
24159;SDS011;62385;41.594;23.808;2022-07-30T02:11:44;8.70;;;6.82;;
24159;SDS011;62385;41.594;23.808;2022-07-30T02:14:54;8.00;;;7.07;;
24159;SDS011;62385;41.594;23.808;2022-07-30T02:17:22;8.38;;;7.20;;
24159;SDS011;62385;41.594;23.808;2022-07-30T02:19:52;8.07;;;6.50;;
24159;SDS011;62385;41.594;23.808;2022-07-30T02:22:21;8.70;;;7.18;;
24159;SDS011;62385;41.594;23.808;2022-07-30T02:25:08;7.80;;;7.00;;
24159;SDS011;62385;41.594;23.808;2022-07-30T02:27:39;8.63;;;7.20;;
24159;SDS011;62385;41.594;23.808;2022-07-30T02:30:07;9.43;;;7.07;;
24159;SDS011;62385;41.594;23.808;2022-07-30T02:32:39;10.32;;;7.53;;
24159;SDS011;62385;41.594;23.808;2022-07-30T02:35:09;10.10;;;7.50;;
24159;SDS011;62385;41.594;23.808;2022-07-30T02:37:39;8.05;;;7.22;;
24159;SDS011;62385;41.594;23.808;2022-07-30T02:40:07;8.95;;;7.30;;
24159;SDS011;62385;41.594;23.808;2022-07-30T02:42:34;9.02;;;7.55;;
24159;SDS011;62385;41.594;23.808;2022-07-30T02:45:01;8.57;;;7.38;;
24159;SDS011;62385;41.594;23.808;2022-07-30T02:47:30;11.05;;;7.55;;
24159;SDS011;62385;41.594;23.808;2022-07-30T02:50:00;9.02;;;7.40;;
24159;SDS011;62385;41.594;23.808;2022-07-30T02:52:27;8.27;;;7.47;;
24159;SDS011;62385;41.594;23.808;2022-07-30T02:54:55;9.30;;;8.02;;
24159;SDS011;62385;41.594;23.808;2022-07-30T02:57:22;9.48;;;7.63;;
24159;SDS011;62385;41.594;23.808;2022-07-30T02:59:47;8.48;;;7.68;;
24159;SDS011;62385;41.594;23.808;2022-07-30T03:02:14;8.18;;;7.32;;
24159;SDS011;62385;41.594;23.808;2022-07-30T03:04:41;8.85;;;7.60;;
24159;SDS011;62385;41.594;23.808;2022-07-30T03:07:08;7.93;;;7.13;;
24159;SDS011;62385;41.594;23.808;2022-07-30T03:09:36;8.50;;;7.70;;
24159;SDS011;62385;41.594;23.808;2022-07-30T03:12:06;9.27;;;7.75;;
24159;SDS011;62385;41.594;23.808;2022-07-30T03:14:34;9.32;;;7.47;;
24159;SDS011;62385;41.594;23.808;2022-07-30T03:17:01;8.45;;;7.45;;
24159;SDS011;62385;41.594;23.808;2022-07-30T03:19:28;9.27;;;7.22;;
24159;SDS011;62385;41.594;23.808;2022-07-30T03:21:59;10.00;;;7.40;;
24159;SDS011;62385;41.594;23.808;2022-07-30T03:24:26;13.18;;;7.75;;
24159;SDS011;62385;41.594;23.808;2022-07-30T03:26:54;15.73;;;7.82;;
24159;SDS011;62385;41.594;23.808;2022-07-30T03:29:21;11.07;;;7.63;;
24159;SDS011;62385;41.594;23.808;2022-07-30T03:31:49;12.80;;;7.60;;
24159;SDS011;62385;41.594;23.808;2022-07-30T03:34:16;9.82;;;8.02;;
24159;SDS011;62385;41.594;23.808;2022-07-30T03:36:43;10.85;;;7.90;;
24159;SDS011;62385;41.594;23.808;2022-07-30T03:39:08;8.63;;;7.82;;
24159;SDS011;62385;41.594;23.808;2022-07-30T03:41:37;13.32;;;7.85;;
24159;SDS011;62385;41.594;23.808;2022-07-30T03:44:03;10.93;;;7.72;;
24159;SDS011;62385;41.594;23.808;2022-07-30T03:46:32;8.65;;;7.72;;
24159;SDS011;62385;41.594;23.808;2022-07-30T03:49:00;9.15;;;7.05;;
24159;SDS011;62385;41.594;23.808;2022-07-30T03:51:27;8.77;;;7.88;;
24159;SDS011;62385;41.594;23.808;2022-07-30T03:53:53;8.75;;;7.78;;
24159;SDS011;62385;41.594;23.808;2022-07-30T03:56:38;8.93;;;8.00;;
24159;SDS011;62385;41.594;23.808;2022-07-30T03:59:17;10.02;;;8.63;;
24159;SDS011;62385;41.594;23.808;2022-07-30T04:01:43;9.48;;;8.40;;
24159;SDS011;62385;41.594;23.808;2022-07-30T04:04:14;10.30;;;8.43;;
24159;SDS011;62385;41.594;23.808;2022-07-30T04:06:40;11.90;;;8.20;;
24159;SDS011;62385;41.594;23.808;2022-07-30T04:09:08;11.18;;;9.63;;
24159;SDS011;62385;41.594;23.808;2022-07-30T04:11:35;10.93;;;9.32;;
24159;SDS011;62385;41.594;23.808;2022-07-30T04:14:04;12.00;;;10.35;;
24159;SDS011;62385;41.594;23.808;2022-07-30T04:16:34;14.95;;;11.07;;
24159;SDS011;62385;41.594;23.808;2022-07-30T04:19:32;15.23;;;10.10;;
24159;SDS011;62385;41.594;23.808;2022-07-30T04:22:02;16.02;;;14.23;;
24159;SDS011;62385;41.594;23.808;2022-07-30T04:24:32;13.77;;;11.52;;
24159;SDS011;62385;41.594;23.808;2022-07-30T04:27:00;12.30;;;10.35;;
24159;SDS011;62385;41.594;23.808;2022-07-30T04:29:26;12.15;;;9.65;;
24159;SDS011;62385;41.594;23.808;2022-07-30T04:31:53;12.27;;;10.02;;
24159;SDS011;62385;41.594;23.808;2022-07-30T04:34:32;12.95;;;10.93;;
24159;SDS011;62385;41.594;23.808;2022-07-30T04:37:01;10.98;;;9.88;;
24159;SDS011;62385;41.594;23.808;2022-07-30T04:39:27;12.25;;;10.98;;
24159;SDS011;62385;41.594;23.808;2022-07-30T04:41:54;12.15;;;9.57;;
24159;SDS011;62385;41.594;23.808;2022-07-30T04:44:25;16.25;;;9.98;;
24159;SDS011;62385;41.594;23.808;2022-07-30T04:47:10;13.38;;;9.55;;
24159;SDS011;62385;41.594;23.808;2022-07-30T04:49:47;14.18;;;10.77;;
24159;SDS011;62385;41.594;23.808;2022-07-30T04:52:15;11.85;;;10.60;;
24159;SDS011;62385;41.594;23.808;2022-07-30T04:54:47;13.63;;;11.93;;
24159;SDS011;62385;41.594;23.808;2022-07-30T04:57:30;12.15;;;10.40;;
24159;SDS011;62385;41.594;23.808;2022-07-30T04:59:58;13.25;;;10.48;;
24159;SDS011;62385;41.594;23.808;2022-07-30T05:02:24;11.10;;;9.95;;
24159;SDS011;62385;41.594;23.808;2022-07-30T05:04:53;12.13;;;10.82;;
24159;SDS011;62385;41.594;23.808;2022-07-30T05:07:21;12.85;;;10.10;;
24159;SDS011;62385;41.594;23.808;2022-07-30T05:09:48;12.27;;;10.55;;
24159;SDS011;62385;41.594;23.808;2022-07-30T05:12:14;11.65;;;10.00;;
24159;SDS011;62385;41.594;23.808;2022-07-30T05:14:40;15.32;;;13.75;;
24159;SDS011;62385;41.594;23.808;2022-07-30T05:17:06;11.43;;;10.23;;
24159;SDS011;62385;41.594;23.808;2022-07-30T05:19:32;11.75;;;9.18;;
24159;SDS011;62385;41.594;23.808;2022-07-30T05:21:58;14.90;;;10.18;;
24159;SDS011;62385;41.594;23.808;2022-07-30T05:24:23;12.18;;;9.25;;
24159;SDS011;62385;41.594;23.808;2022-07-30T05:26:54;12.77;;;9.20;;
24159;SDS011;62385;41.594;23.808;2022-07-30T05:29:21;10.95;;;8.73;;
24159;SDS011;62385;41.594;23.808;2022-07-30T05:31:51;12.68;;;9.35;;
24159;SDS011;62385;41.594;23.808;2022-07-30T05:34:18;10.98;;;9.50;;
24159;SDS011;62385;41.594;23.808;2022-07-30T05:36:44;9.85;;;8.85;;
24159;SDS011;62385;41.594;23.808;2022-07-30T05:39:11;9.73;;;8.73;;
24159;SDS011;62385;41.594;23.808;2022-07-30T05:41:57;10.18;;;8.45;;
24159;SDS011;62385;41.594;23.808;2022-07-30T05:44:42;11.77;;;9.05;;
24159;SDS011;62385;41.594;23.808;2022-07-30T05:47:08;10.55;;;9.45;;
24159;SDS011;62385;41.594;23.808;2022-07-30T05:49:34;11.45;;;9.48;;
24159;SDS011;62385;41.594;23.808;2022-07-30T05:52:17;10.75;;;9.20;;
24159;SDS011;62385;41.594;23.808;2022-07-30T05:54:44;11.63;;;9.13;;
24159;SDS011;62385;41.594;23.808;2022-07-30T05:57:28;10.80;;;9.13;;
24159;SDS011;62385;41.594;23.808;2022-07-30T05:59:55;12.10;;;8.88;;
24159;SDS011;62385;41.594;23.808;2022-07-30T06:02:41;9.77;;;8.75;;
24159;SDS011;62385;41.594;23.808;2022-07-30T06:05:27;12.25;;;10.18;;
24159;SDS011;62385;41.594;23.808;2022-07-30T06:07:56;12.73;;;11.43;;
24159;SDS011;62385;41.594;23.808;2022-07-30T06:10:23;14.13;;;10.43;;
24159;SDS011;62385;41.594;23.808;2022-07-30T06:12:49;11.55;;;10.35;;
24159;SDS011;62385;41.594;23.808;2022-07-30T06:15:17;14.25;;;10.52;;
24159;SDS011;62385;41.594;23.808;2022-07-30T06:17:46;14.90;;;10.52;;
24159;SDS011;62385;41.594;23.808;2022-07-30T06:20:19;12.57;;;11.27;;
24159;SDS011;62385;41.594;23.808;2022-07-30T06:23:04;14.45;;;10.57;;
24159;SDS011;62385;41.594;23.808;2022-07-30T06:25:48;13.32;;;11.48;;
24159;SDS011;62385;41.594;23.808;2022-07-30T06:28:16;14.10;;;11.52;;
24159;SDS011;62385;41.594;23.808;2022-07-30T06:30:43;13.85;;;12.38;;
24159;SDS011;62385;41.594;23.808;2022-07-30T06:33:10;13.32;;;10.60;;
24159;SDS011;62385;41.594;23.808;2022-07-30T06:35:36;13.18;;;11.77;;
24159;SDS011;62385;41.594;23.808;2022-07-30T06:38:02;12.57;;;11.05;;
24159;SDS011;62385;41.594;23.808;2022-07-30T06:40:29;16.50;;;11.57;;
24159;SDS011;62385;41.594;23.808;2022-07-30T06:43:05;13.02;;;11.63;;
24159;SDS011;62385;41.594;23.808;2022-07-30T06:45:57;12.07;;;10.55;;
24159;SDS011;62385;41.594;23.808;2022-07-30T06:52:07;13.23;;;11.18;;
24159;SDS011;62385;41.594;23.808;2022-07-30T06:54:33;12.13;;;10.82;;
24159;SDS011;62385;41.594;23.808;2022-07-30T06:57:03;13.57;;;11.00;;
24159;SDS011;62385;41.594;23.808;2022-07-30T06:59:29;16.50;;;10.88;;
24159;SDS011;62385;41.594;23.808;2022-07-30T07:01:57;13.05;;;10.68;;
24159;SDS011;62385;41.594;23.808;2022-07-30T07:04:45;13.05;;;10.55;;
24159;SDS011;62385;41.594;23.808;2022-07-30T07:07:12;13.05;;;11.00;;
24159;SDS011;62385;41.594;23.808;2022-07-30T07:09:40;11.45;;;10.23;;
24159;SDS011;62385;41.594;23.808;2022-07-30T07:12:23;11.65;;;10.43;;
24159;SDS011;62385;41.594;23.808;2022-07-30T07:14:49;11.95;;;10.73;;
24159;SDS011;62385;41.594;23.808;2022-07-30T07:17:15;12.00;;;10.75;;
24159;SDS011;62385;41.594;23.808;2022-07-30T07:19:55;20.25;;;11.75;;
24159;SDS011;62385;41.594;23.808;2022-07-30T07:22:21;16.58;;;11.27;;
24159;SDS011;62385;41.594;23.808;2022-07-30T07:24:47;12.30;;;11.10;;
24159;SDS011;62385;41.594;23.808;2022-07-30T07:27:16;11.93;;;10.50;;
24159;SDS011;62385;41.594;23.808;2022-07-30T07:29:44;32.00;;;12.68;;
24159;SDS011;62385;41.594;23.808;2022-07-30T07:32:10;11.60;;;10.50;;
24159;SDS011;62385;41.594;23.808;2022-07-30T07:34:37;11.65;;;10.52;;
24159;SDS011;62385;41.594;23.808;2022-07-30T07:37:02;12.35;;;10.77;;
24159;SDS011;62385;41.594;23.808;2022-07-30T07:39:28;11.98;;;10.65;;
24159;SDS011;62385;41.594;23.808;2022-07-30T07:41:55;12.15;;;9.73;;
24159;SDS011;62385;41.594;23.808;2022-07-30T07:44:23;13.18;;;9.00;;
24159;SDS011;62385;41.594;23.808;2022-07-30T07:47:07;11.88;;;9.18;;
24159;SDS011;62385;41.594;23.808;2022-07-30T07:49:40;14.65;;;9.68;;
24159;SDS011;62385;41.594;23.808;2022-07-30T07:52:07;9.98;;;9.00;;
24159;SDS011;62385;41.594;23.808;2022-07-30T07:54:33;8.82;;;8.00;;
24159;SDS011;62385;41.594;23.808;2022-07-30T07:56:58;9.43;;;7.53;;
24159;SDS011;62385;41.594;23.808;2022-07-30T07:59:30;8.50;;;7.70;;
24159;SDS011;62385;41.594;23.808;2022-07-30T08:02:14;9.82;;;7.72;;
24159;SDS011;62385;41.594;23.808;2022-07-30T08:04:59;14.25;;;7.07;;
24159;SDS011;62385;41.594;23.808;2022-07-30T08:07:43;12.90;;;7.40;;
24159;SDS011;62385;41.594;23.808;2022-07-30T08:10:12;9.45;;;7.88;;
24159;SDS011;62385;41.594;23.808;2022-07-30T08:13:06;11.10;;;6.57;;
24159;SDS011;62385;41.594;23.808;2022-07-30T08:16:01;7.32;;;6.55;;
24159;SDS011;62385;41.594;23.808;2022-07-30T08:18:46;7.97;;;7.18;;
24159;SDS011;62385;41.594;23.808;2022-07-30T08:21:39;30.30;;;20.35;;
24159;SDS011;62385;41.594;23.808;2022-07-30T08:24:05;25.55;;;15.98;;
24159;SDS011;62385;41.594;23.808;2022-07-30T08:26:31;9.77;;;8.10;;
24159;SDS011;62385;41.594;23.808;2022-07-30T08:28:57;8.32;;;6.53;;
24159;SDS011;62385;41.594;23.808;2022-07-30T08:31:23;8.35;;;6.38;;
24159;SDS011;62385;41.594;23.808;2022-07-30T08:33:48;14.63;;;6.47;;
24159;SDS011;62385;41.594;23.808;2022-07-30T08:36:17;6.90;;;6.20;;
24159;SDS011;62385;41.594;23.808;2022-07-30T08:38:43;6.20;;;5.43;;
24159;SDS011;62385;41.594;23.808;2022-07-30T08:41:11;6.00;;;5.40;;
24159;SDS011;62385;41.594;23.808;2022-07-30T08:43:38;6.13;;;5.53;;
24159;SDS011;62385;41.594;23.808;2022-07-30T08:46:05;8.23;;;5.38;;
24159;SDS011;62385;41.594;23.808;2022-07-30T08:48:46;6.85;;;5.75;;
24159;SDS011;62385;41.594;23.808;2022-07-30T08:51:14;8.95;;;5.45;;
24159;SDS011;62385;41.594;23.808;2022-07-30T08:53:42;6.40;;;5.80;;
24159;SDS011;62385;41.594;23.808;2022-07-30T08:56:09;6.28;;;5.70;;
24159;SDS011;62385;41.594;23.808;2022-07-30T08:58:36;8.35;;;5.38;;
24159;SDS011;62385;41.594;23.808;2022-07-30T09:01:02;7.05;;;5.47;;
24159;SDS011;62385;41.594;23.808;2022-07-30T09:03:30;10.52;;;5.80;;
24159;SDS011;62385;41.594;23.808;2022-07-30T09:06:02;6.97;;;5.28;;
24159;SDS011;62385;41.594;23.808;2022-07-30T09:08:29;5.85;;;4.50;;
24159;SDS011;62385;41.594;23.808;2022-07-30T09:10:55;8.57;;;4.97;;
24159;SDS011;62385;41.594;23.808;2022-07-30T09:13:30;5.82;;;4.80;;
24159;SDS011;62385;41.594;23.808;2022-07-30T09:16:06;5.30;;;4.80;;
24159;SDS011;62385;41.594;23.808;2022-07-30T09:18:43;5.05;;;4.10;;
24159;SDS011;62385;41.594;23.808;2022-07-30T09:21:19;5.05;;;4.18;;
24159;SDS011;62385;41.594;23.808;2022-07-30T09:24:16;5.65;;;4.53;;
24159;SDS011;62385;41.594;23.808;2022-07-30T09:27:02;7.18;;;4.10;;
24159;SDS011;62385;41.594;23.808;2022-07-30T09:29:41;4.75;;;4.20;;
24159;SDS011;62385;41.594;23.808;2022-07-30T09:32:25;4.63;;;4.10;;
24159;SDS011;62385;41.594;23.808;2022-07-30T09:35:31;5.05;;;3.85;;
24159;SDS011;62385;41.594;23.808;2022-07-30T09:38:10;4.93;;;4.45;;
24159;SDS011;62385;41.594;23.808;2022-07-30T09:40:56;4.82;;;4.25;;
24159;SDS011;62385;41.594;23.808;2022-07-30T09:43:48;14.15;;;4.32;;
24159;SDS011;62385;41.594;23.808;2022-07-30T09:46:39;6.03;;;4.40;;
24159;SDS011;62385;41.594;23.808;2022-07-30T09:49:24;14.10;;;5.28;;
24159;SDS011;62385;41.594;23.808;2022-07-30T09:51:51;4.38;;;3.65;;
24159;SDS011;62385;41.594;23.808;2022-07-30T09:54:18;4.00;;;3.60;;
24159;SDS011;62385;41.594;23.808;2022-07-30T09:56:44;10.80;;;3.47;;
24159;SDS011;62385;41.594;23.808;2022-07-30T09:59:26;7.75;;;3.58;;
24159;SDS011;62385;41.594;23.808;2022-07-30T10:01:53;7.30;;;3.58;;
24159;SDS011;62385;41.594;23.808;2022-07-30T10:04:38;5.38;;;3.80;;
24159;SDS011;62385;41.594;23.808;2022-07-30T10:07:17;4.60;;;3.35;;
24159;SDS011;62385;41.594;23.808;2022-07-30T10:09:44;4.32;;;3.47;;
24159;SDS011;62385;41.594;23.808;2022-07-30T10:12:12;6.82;;;3.58;;
24159;SDS011;62385;41.594;23.808;2022-07-30T10:14:42;3.53;;;3.22;;
24159;SDS011;62385;41.594;23.808;2022-07-30T10:17:12;4.35;;;3.35;;
24159;SDS011;62385;41.594;23.808;2022-07-30T10:19:41;3.95;;;3.33;;
24159;SDS011;62385;41.594;23.808;2022-07-30T10:22:30;5.38;;;3.83;;
24159;SDS011;62385;41.594;23.808;2022-07-30T10:25:28;6.05;;;3.10;;
24159;SDS011;62385;41.594;23.808;2022-07-30T10:27:59;7.90;;;3.50;;
24159;SDS011;62385;41.594;23.808;2022-07-30T10:30:29;6.35;;;4.05;;
24159;SDS011;62385;41.594;23.808;2022-07-30T10:32:57;6.57;;;4.57;;
24159;SDS011;62385;41.594;23.808;2022-07-30T10:35:23;4.78;;;3.60;;
24159;SDS011;62385;41.594;23.808;2022-07-30T10:37:49;4.45;;;3.60;;
24159;SDS011;62385;41.594;23.808;2022-07-30T10:40:30;4.80;;;3.33;;
24159;SDS011;62385;41.594;23.808;2022-07-30T10:48:36;4.13;;;3.70;;
24159;SDS011;62385;41.594;23.808;2022-07-30T10:51:02;7.05;;;3.80;;
24159;SDS011;62385;41.594;23.808;2022-07-30T10:53:40;5.07;;;3.40;;
24159;SDS011;62385;41.594;23.808;2022-07-30T10:56:14;3.63;;;3.33;;
24159;SDS011;62385;41.594;23.808;2022-07-30T10:58:57;4.40;;;3.97;;
24159;SDS011;62385;41.594;23.808;2022-07-30T11:01:23;5.53;;;4.43;;
24159;SDS011;62385;41.594;23.808;2022-07-30T11:06:43;4.90;;;4.18;;
24159;SDS011;62385;41.594;23.808;2022-07-30T11:15:09;4.78;;;4.13;;
24159;SDS011;62385;41.594;23.808;2022-07-30T11:20:25;7.57;;;5.60;;
24159;SDS011;62385;41.594;23.808;2022-07-30T11:22:51;6.18;;;5.20;;
24159;SDS011;62385;41.594;23.808;2022-07-30T11:27:47;6.50;;;5.57;;
24159;SDS011;62385;41.594;23.808;2022-07-30T11:32:40;8.05;;;5.82;;
24159;SDS011;62385;41.594;23.808;2022-07-30T11:35:11;9.43;;;5.97;;
24159;SDS011;62385;41.594;23.808;2022-07-30T11:46:10;4.85;;;4.38;;
24159;SDS011;62385;41.594;23.808;2022-07-30T11:48:39;5.60;;;5.05;;
24159;SDS011;62385;41.594;23.808;2022-07-30T11:51:06;4.70;;;4.07;;
24159;SDS011;62385;41.594;23.808;2022-07-30T11:53:34;7.30;;;4.55;;
24159;SDS011;62385;41.594;23.808;2022-07-30T11:56:01;8.05;;;4.38;;
24159;SDS011;62385;41.594;23.808;2022-07-30T11:58:28;7.65;;;4.78;;
24159;SDS011;62385;41.594;23.808;2022-07-30T12:00:57;6.82;;;4.32;;
24159;SDS011;62385;41.594;23.808;2022-07-30T12:03:26;4.97;;;4.22;;
24159;SDS011;62385;41.594;23.808;2022-07-30T12:06:04;12.23;;;4.68;;
24159;SDS011;62385;41.594;23.808;2022-07-30T12:08:39;6.45;;;4.75;;
24159;SDS011;62385;41.594;23.808;2022-07-30T12:11:06;7.50;;;5.32;;
24159;SDS011;62385;41.594;23.808;2022-07-30T12:13:32;7.40;;;4.70;;
24159;SDS011;62385;41.594;23.808;2022-07-30T12:15:57;8.00;;;4.75;;
24159;SDS011;62385;41.594;23.808;2022-07-30T12:18:24;7.10;;;5.03;;
24159;SDS011;62385;41.594;23.808;2022-07-30T12:20:56;5.50;;;5.00;;
24159;SDS011;62385;41.594;23.808;2022-07-30T12:23:27;5.70;;;5.10;;
24159;SDS011;62385;41.594;23.808;2022-07-30T12:25:53;5.82;;;5.32;;
24159;SDS011;62385;41.594;23.808;2022-07-30T12:28:20;9.80;;;5.55;;
24159;SDS011;62385;41.594;23.808;2022-07-30T12:30:48;7.50;;;5.40;;
24159;SDS011;62385;41.594;23.808;2022-07-30T12:33:14;7.80;;;5.40;;
24159;SDS011;62385;41.594;23.808;2022-07-30T12:35:56;6.45;;;5.32;;
24159;SDS011;62385;41.594;23.808;2022-07-30T12:38:24;7.88;;;5.03;;
24159;SDS011;62385;41.594;23.808;2022-07-30T12:46:11;9.18;;;5.50;;
24159;SDS011;62385;41.594;23.808;2022-07-30T12:48:38;11.65;;;6.43;;
24159;SDS011;62385;41.594;23.808;2022-07-30T12:51:25;6.63;;;5.15;;
24159;SDS011;62385;41.594;23.808;2022-07-30T12:53:54;10.15;;;5.47;;
24159;SDS011;62385;41.594;23.808;2022-07-30T12:56:24;7.25;;;5.43;;
24159;SDS011;62385;41.594;23.808;2022-07-30T12:58:52;7.93;;;5.53;;
24159;SDS011;62385;41.594;23.808;2022-07-30T13:01:37;6.93;;;5.30;;
24159;SDS011;62385;41.594;23.808;2022-07-30T13:04:07;5.20;;;4.70;;
24159;SDS011;62385;41.594;23.808;2022-07-30T13:06:33;6.57;;;4.90;;
24159;SDS011;62385;41.594;23.808;2022-07-30T13:09:00;5.30;;;4.80;;
24159;SDS011;62385;41.594;23.808;2022-07-30T13:11:35;10.38;;;5.30;;
24159;SDS011;62385;41.594;23.808;2022-07-30T13:14:20;5.75;;;5.25;;
24159;SDS011;62385;41.594;23.808;2022-07-30T13:16:47;7.57;;;5.28;;
24159;SDS011;62385;41.594;23.808;2022-07-30T13:19:12;6.03;;;5.35;;
24159;SDS011;62385;41.594;23.808;2022-07-30T13:21:38;6.13;;;5.18;;
24159;SDS011;62385;41.594;23.808;2022-07-30T13:24:05;7.38;;;5.03;;
24159;SDS011;62385;41.594;23.808;2022-07-30T13:26:31;5.93;;;5.32;;
24159;SDS011;62385;41.594;23.808;2022-07-30T13:28:59;8.10;;;5.85;;
24159;SDS011;62385;41.594;23.808;2022-07-30T13:31:25;10.82;;;5.18;;
24159;SDS011;62385;41.594;23.808;2022-07-30T13:33:51;7.07;;;5.35;;
24159;SDS011;62385;41.594;23.808;2022-07-30T13:36:16;7.70;;;5.35;;
24159;SDS011;62385;41.594;23.808;2022-07-30T13:38:42;6.95;;;5.80;;
24159;SDS011;62385;41.594;23.808;2022-07-30T13:41:11;6.60;;;5.72;;
24159;SDS011;62385;41.594;23.808;2022-07-30T13:43:37;6.90;;;5.63;;
24159;SDS011;62385;41.594;23.808;2022-07-30T13:46:03;7.65;;;5.55;;
24159;SDS011;62385;41.594;23.808;2022-07-30T13:48:30;7.40;;;6.18;;
24159;SDS011;62385;41.594;23.808;2022-07-30T13:50:56;6.72;;;6.13;;
24159;SDS011;62385;41.594;23.808;2022-07-30T13:53:22;10.30;;;5.63;;
24159;SDS011;62385;41.594;23.808;2022-07-30T13:55:47;6.45;;;5.85;;
24159;SDS011;62385;41.594;23.808;2022-07-30T13:58:13;8.13;;;5.60;;
24159;SDS011;62385;41.594;23.808;2022-07-30T14:00:39;19.70;;;7.18;;
24159;SDS011;62385;41.594;23.808;2022-07-30T14:03:06;6.53;;;5.63;;
24159;SDS011;62385;41.594;23.808;2022-07-30T14:05:33;7.20;;;6.00;;
24159;SDS011;62385;41.594;23.808;2022-07-30T14:08:04;6.35;;;5.35;;
24159;SDS011;62385;41.594;23.808;2022-07-30T14:10:32;6.43;;;5.82;;
24159;SDS011;62385;41.594;23.808;2022-07-30T14:12:59;6.70;;;6.00;;
24159;SDS011;62385;41.594;23.808;2022-07-30T14:15:26;7.30;;;5.50;;
24159;SDS011;62385;41.594;23.808;2022-07-30T14:17:55;8.80;;;5.40;;
24159;SDS011;62385;41.594;23.808;2022-07-30T14:20:21;7.18;;;5.63;;
24159;SDS011;62385;41.594;23.808;2022-07-30T14:22:47;10.10;;;5.47;;
24159;SDS011;62385;41.594;23.808;2022-07-30T14:25:12;6.28;;;5.68;;
24159;SDS011;62385;41.594;23.808;2022-07-30T14:27:38;8.20;;;5.28;;
24159;SDS011;62385;41.594;23.808;2022-07-30T14:30:05;6.00;;;5.28;;
24159;SDS011;62385;41.594;23.808;2022-07-30T14:32:32;6.35;;;5.38;;
24159;SDS011;62385;41.594;23.808;2022-07-30T14:34:57;6.75;;;5.00;;
24159;SDS011;62385;41.594;23.808;2022-07-30T14:37:23;5.25;;;4.75;;
24159;SDS011;62385;41.594;23.808;2022-07-30T14:39:49;7.30;;;5.10;;
24159;SDS011;62385;41.594;23.808;2022-07-30T14:42:14;6.05;;;5.35;;
24159;SDS011;62385;41.594;23.808;2022-07-30T14:44:41;5.65;;;4.72;;
24159;SDS011;62385;41.594;23.808;2022-07-30T14:47:08;11.27;;;6.68;;
24159;SDS011;62385;41.594;23.808;2022-07-30T14:49:33;10.75;;;5.50;;
24159;SDS011;62385;41.594;23.808;2022-07-30T14:51:59;9.20;;;6.32;;
24159;SDS011;62385;41.594;23.808;2022-07-30T14:54:25;10.13;;;6.35;;
24159;SDS011;62385;41.594;23.808;2022-07-30T14:56:53;16.30;;;6.72;;
24159;SDS011;62385;41.594;23.808;2022-07-30T14:59:18;22.48;;;6.88;;
24159;SDS011;62385;41.594;23.808;2022-07-30T15:01:44;6.97;;;5.70;;
24159;SDS011;62385;41.594;23.808;2022-07-30T15:04:12;7.97;;;5.15;;
24159;SDS011;62385;41.594;23.808;2022-07-30T15:06:39;6.60;;;6.00;;
24159;SDS011;62385;41.594;23.808;2022-07-30T15:09:06;6.68;;;5.97;;
24159;SDS011;62385;41.594;23.808;2022-07-30T15:11:32;15.93;;;6.90;;
24159;SDS011;62385;41.594;23.808;2022-07-30T15:13:58;12.80;;;6.15;;
24159;SDS011;62385;41.594;23.808;2022-07-30T15:16:23;11.00;;;8.30;;
24159;SDS011;62385;41.594;23.808;2022-07-30T15:18:49;7.05;;;6.43;;
24159;SDS011;62385;41.594;23.808;2022-07-30T15:21:15;8.25;;;6.25;;
24159;SDS011;62385;41.594;23.808;2022-07-30T15:23:41;9.20;;;6.53;;
24159;SDS011;62385;41.594;23.808;2022-07-30T15:26:06;12.45;;;6.22;;